CLK3 weather

Public forecast

Using degrees Celsius for public forecast. Weather courtesy of forecast.io.

Closest aviation weather report (METAR) to Lucknow Airpark

Closest report is Wiarton Airport, 49.6 nm (91.8 km) NNE. Retrieved 2020/08/11 18:00 UTC (22 minutes ago):

CYVV 111800Z 27008KT 230V300 15SM FEW025 23/17 A2989 RMK SC1 SLP119 DENSITY ALT 1900FT

Closest aviation forecast (TAF) to Lucknow Airpark

Closest forecast is Wiarton Airport, 49.6 nm (91.8 km) NNE. Retrieved 2020/08/11 14:00 UTC (4 hours ago):

TAF CYVV 111340Z 1114/1123 VRB03KT 3SM -SHRA BR BKN009 OVC020 TEMPO 1114/1116 P6SM NSW SCT009 SCT020 OVC070 BECMG 1114/1116 27008KT FM111600 28012KT P6SM FEW020 RMK NXT FCST BY 112000Z